sensor_id;sensor_type;location;lat;lon;timestamp;pressure;altitude;pressure_sealevel;temperature;humidity
6528;BME280;64597;42.664;23.256;2023-06-19T00:00:39;94688.81;;;18.18;64.94
6528;BME280;64597;42.664;23.256;2023-06-19T00:03:05;94682.41;;;18.14;65.35
6528;BME280;64597;42.664;23.256;2023-06-19T00:05:30;94684.25;;;18.19;65.27
6528;BME280;64597;42.664;23.256;2023-06-19T00:07:56;94663.28;;;18.07;64.80
6528;BME280;64597;42.664;23.256;2023-06-19T00:10:21;94669.69;;;18.06;64.63
6528;BME280;64597;42.664;23.256;2023-06-19T00:12:47;94676.53;;;18.17;64.85
6528;BME280;64597;42.664;23.256;2023-06-19T00:15:12;94683.75;;;18.17;64.78
6528;BME280;64597;42.664;23.256;2023-06-19T00:17:38;94684.81;;;18.16;65.18
6528;BME280;64597;42.664;23.256;2023-06-19T00:20:05;94683.50;;;18.13;64.99
6528;BME280;64597;42.664;23.256;2023-06-19T00:22:31;94676.81;;;18.16;64.92
6528;BME280;64597;42.664;23.256;2023-06-19T00:24:56;94667.53;;;18.08;64.94
6528;BME280;64597;42.664;23.256;2023-06-19T00:27:22;94660.34;;;18.03;64.95
6528;BME280;64597;42.664;23.256;2023-06-19T00:29:47;94663.78;;;18.09;65.10
6528;BME280;64597;42.664;23.256;2023-06-19T00:32:13;94676.03;;;18.15;65.28
6528;BME280;64597;42.664;23.256;2023-06-19T00:34:38;94670.69;;;18.15;65.00
6528;BME280;64597;42.664;23.256;2023-06-19T00:37:04;94670.69;;;18.15;65.17
6528;BME280;64597;42.664;23.256;2023-06-19T00:39:30;94673.34;;;18.15;65.14
6528;BME280;64597;42.664;23.256;2023-06-19T00:41:56;94664.25;;;18.16;65.35
6528;BME280;64597;42.664;23.256;2023-06-19T00:44:22;94662.16;;;18.13;65.40
6528;BME280;64597;42.664;23.256;2023-06-19T00:46:51;94662.41;;;18.11;65.53
6528;BME280;64597;42.664;23.256;2023-06-19T00:49:20;94664.34;;;18.06;65.63
6528;BME280;64597;42.664;23.256;2023-06-19T00:51:46;94655.28;;;18.02;65.64
6528;BME280;64597;42.664;23.256;2023-06-19T00:54:12;94656.34;;;18.01;65.33
6528;BME280;64597;42.664;23.256;2023-06-19T00:56:37;94651.03;;;18.01;65.38
6528;BME280;64597;42.664;23.256;2023-06-19T00:59:08;94642.50;;;17.99;65.48
6528;BME280;64597;42.664;23.256;2023-06-19T01:01:37;94636.13;;;17.95;65.47
6528;BME280;64597;42.664;23.256;2023-06-19T01:04:03;94634.03;;;17.92;65.53
6528;BME280;64597;42.664;23.256;2023-06-19T01:06:32;94629.75;;;17.91;65.53
6528;BME280;64597;42.664;23.256;2023-06-19T01:09:08;94632.69;;;17.89;65.68
6528;BME280;64597;42.664;23.256;2023-06-19T01:11:46;94627.66;;;17.83;65.76
6528;BME280;64597;42.664;23.256;2023-06-19T01:14:30;94500.53;;;16.96;65.88
6528;BME280;64597;42.664;23.256;2023-06-19T01:16:57;94625.13;;;17.68;66.26
6528;BME280;64597;42.664;23.256;2023-06-19T01:19:23;94625.97;;;17.58;66.37
6528;BME280;64597;42.664;23.256;2023-06-19T01:21:51;94624.09;;;17.64;66.33
6528;BME280;64597;42.664;23.256;2023-06-19T01:24:16;94626.53;;;17.55;66.58
6528;BME280;64597;42.664;23.256;2023-06-19T01:26:42;94620.91;;;17.57;66.53
6528;BME280;64597;42.664;23.256;2023-06-19T01:29:12;94624.13;;;17.49;66.58
6528;BME280;64597;42.664;23.256;2023-06-19T01:31:45;94624.16;;;17.44;66.77
6528;BME280;64597;42.664;23.256;2023-06-19T01:34:12;94600.25;;;17.23;67.14
6528;BME280;64597;42.664;23.256;2023-06-19T01:36:41;94625.81;;;17.35;67.25
6528;BME280;64597;42.664;23.256;2023-06-19T01:39:07;94613.84;;;17.27;67.18
6528;BME280;64597;42.664;23.256;2023-06-19T01:41:35;94634.09;;;17.33;67.15
6528;BME280;64597;42.664;23.256;2023-06-19T01:44:02;94636.75;;;17.33;67.06
6528;BME280;64597;42.664;23.256;2023-06-19T01:46:28;94576.00;;;16.66;67.33
6528;BME280;64597;42.664;23.256;2023-06-19T01:48:53;94631.72;;;17.21;67.34
6528;BME280;64597;42.664;23.256;2023-06-19T01:51:19;94641.84;;;17.24;67.44
6528;BME280;64597;42.664;23.256;2023-06-19T01:53:44;94632.53;;;17.22;67.38
6528;BME280;64597;42.664;23.256;2023-06-19T01:56:10;94637.56;;;17.23;67.76
6528;BME280;64597;42.664;23.256;2023-06-19T01:58:36;94618.72;;;17.05;67.58
6528;BME280;64597;42.664;23.256;2023-06-19T02:01:01;94625.91;;;17.09;67.96
6528;BME280;64597;42.664;23.256;2023-06-19T02:03:27;94645.59;;;17.13;68.00
6528;BME280;64597;42.664;23.256;2023-06-19T02:05:52;94653.63;;;17.08;67.89
6528;BME280;64597;42.664;23.256;2023-06-19T02:08:18;94658.44;;;17.01;67.74
6528;BME280;64597;42.664;23.256;2023-06-19T02:10:43;94658.16;;;17.03;67.58
6528;BME280;64597;42.664;23.256;2023-06-19T02:13:09;94635.06;;;16.83;68.14
6528;BME280;64597;42.664;23.256;2023-06-19T02:15:34;94646.78;;;16.87;68.00
6528;BME280;64597;42.664;23.256;2023-06-19T02:18:00;94664.84;;;17.00;68.14
6528;BME280;64597;42.664;23.256;2023-06-19T02:20:25;94666.97;;;17.03;68.25
6528;BME280;64597;42.664;23.256;2023-06-19T02:22:51;94671.47;;;17.03;68.25
6528;BME280;64597;42.664;23.256;2023-06-19T02:25:17;94669.09;;;17.01;68.33
6528;BME280;64597;42.664;23.256;2023-06-19T02:27:43;94670.19;;;17.00;68.31
6528;BME280;64597;42.664;23.256;2023-06-19T02:30:08;94670.19;;;16.95;68.21
6528;BME280;64597;42.664;23.256;2023-06-19T02:32:34;94677.13;;;16.96;68.42
6528;BME280;64597;42.664;23.256;2023-06-19T02:34:59;94674.47;;;16.96;68.32
6528;BME280;64597;42.664;23.256;2023-06-19T02:37:25;94671.78;;;16.96;68.10
6528;BME280;64597;42.664;23.256;2023-06-19T02:39:50;94675.50;;;16.95;68.12
6528;BME280;64597;42.664;23.256;2023-06-19T02:42:19;94671.25;;;16.89;67.70
6528;BME280;64597;42.664;23.256;2023-06-19T02:44:44;94677.16;;;16.86;68.13
6528;BME280;64597;42.664;23.256;2023-06-19T02:47:10;94675.03;;;16.73;68.55
6528;BME280;64597;42.664;23.256;2023-06-19T02:49:36;94654.56;;;16.64;68.26
6528;BME280;64597;42.664;23.256;2023-06-19T02:52:01;94677.94;;;16.77;68.10
6528;BME280;64597;42.664;23.256;2023-06-19T02:54:27;94673.69;;;16.71;68.49
6528;BME280;64597;42.664;23.256;2023-06-19T02:56:52;94672.13;;;16.70;67.69
6528;BME280;64597;42.664;23.256;2023-06-19T02:59:18;94652.97;;;16.58;68.02
6528;BME280;64597;42.664;23.256;2023-06-19T03:01:43;94681.16;;;16.69;68.45
6528;BME280;64597;42.664;23.256;2023-06-19T03:04:09;94677.72;;;16.58;68.48
6528;BME280;64597;42.664;23.256;2023-06-19T03:06:35;94686.75;;;16.62;68.47
6528;BME280;64597;42.664;23.256;2023-06-19T03:09:05;94681.69;;;16.61;68.41
6528;BME280;64597;42.664;23.256;2023-06-19T03:11:40;94643.63;;;16.30;68.71
6528;BME280;64597;42.664;23.256;2023-06-19T03:14:06;94678.78;;;16.47;68.81
6528;BME280;64597;42.664;23.256;2023-06-19T03:16:35;94670.78;;;16.47;68.57
6528;BME280;64597;42.664;23.256;2023-06-19T03:19:01;94688.38;;;16.53;68.69
6528;BME280;64597;42.664;23.256;2023-06-19T03:21:27;94684.66;;;16.49;68.55
6528;BME280;64597;42.664;23.256;2023-06-19T03:23:52;94691.53;;;16.45;68.74
6528;BME280;64597;42.664;23.256;2023-06-19T03:26:19;94681.97;;;16.39;69.02
6528;BME280;64597;42.664;23.256;2023-06-19T03:28:45;94681.94;;;16.44;68.77
6528;BME280;64597;42.664;23.256;2023-06-19T03:31:14;94678.78;;;16.37;68.78
6528;BME280;64597;42.664;23.256;2023-06-19T03:33:40;94682.50;;;16.36;68.98
6528;BME280;64597;42.664;23.256;2023-06-19T03:36:05;94678.78;;;16.37;68.77
6528;BME280;64597;42.664;23.256;2023-06-19T03:38:31;94678.22;;;16.30;68.89
6528;BME280;64597;42.664;23.256;2023-06-19T03:40:56;94682.50;;;16.31;69.12
6528;BME280;64597;42.664;23.256;2023-06-19T03:43:22;94679.03;;;16.30;69.08
6528;BME280;64597;42.664;23.256;2023-06-19T03:45:47;94670.78;;;16.22;69.03
6528;BME280;64597;42.664;23.256;2023-06-19T03:48:13;94687.81;;;16.36;68.93
6528;BME280;64597;42.664;23.256;2023-06-19T03:50:38;94683.03;;;16.38;68.80
6528;BME280;64597;42.664;23.256;2023-06-19T03:53:04;94677.69;;;16.38;69.00
6528;BME280;64597;42.664;23.256;2023-06-19T03:55:30;94672.09;;;16.29;68.92
6528;BME280;64597;42.664;23.256;2023-06-19T03:57:55;94685.41;;;16.44;69.17
6528;BME280;64597;42.664;23.256;2023-06-19T04:00:20;94692.06;;;16.47;68.70
6528;BME280;64597;42.664;23.256;2023-06-19T04:02:47;94686.47;;;16.48;68.75
6528;BME280;64597;42.664;23.256;2023-06-19T04:05:13;94681.44;;;16.52;68.67
6528;BME280;64597;42.664;23.256;2023-06-19T04:07:40;94664.66;;;16.41;68.50
6528;BME280;64597;42.664;23.256;2023-06-19T04:10:06;94675.06;;;16.53;68.14
6528;BME280;64597;42.664;23.256;2023-06-19T04:12:32;94675.59;;;16.55;68.57
6528;BME280;64597;42.664;23.256;2023-06-19T04:14:58;94687.56;;;16.63;68.71
6528;BME280;64597;42.664;23.256;2023-06-19T04:17:23;94651.06;;;16.48;68.49
6528;BME280;64597;42.664;23.256;2023-06-19T04:19:49;94679.03;;;16.71;68.47
6528;BME280;64597;42.664;23.256;2023-06-19T04:22:14;94681.13;;;16.79;68.31
6528;BME280;64597;42.664;23.256;2023-06-19T04:24:40;94673.16;;;16.84;67.72
6528;BME280;64597;42.664;23.256;2023-06-19T04:27:06;94644.94;;;16.73;67.79
6528;BME280;64597;42.664;23.256;2023-06-19T04:29:33;94655.28;;;16.89;68.54
6528;BME280;64597;42.664;23.256;2023-06-19T04:31:59;94670.97;;;17.06;67.65
6528;BME280;64597;42.664;23.256;2023-06-19T04:34:24;94657.91;;;17.04;67.23
6528;BME280;64597;42.664;23.256;2023-06-19T04:36:51;94668.50;;;17.24;66.82
6528;BME280;64597;42.664;23.256;2023-06-19T04:39:16;94665.50;;;17.41;67.65
6528;BME280;64597;42.664;23.256;2023-06-19T04:41:45;94663.31;;;17.48;66.40
6528;BME280;64597;42.664;23.256;2023-06-19T04:44:11;94644.94;;;17.47;66.17
6528;BME280;64597;42.664;23.256;2023-06-19T04:46:40;94654.22;;;17.59;65.12
6528;BME280;64597;42.664;23.256;2023-06-19T04:49:06;94663.22;;;17.68;65.36
6528;BME280;64597;42.664;23.256;2023-06-19T04:51:32;94667.16;;;17.81;65.03
6528;BME280;64597;42.664;23.256;2023-06-19T04:54:01;94660.69;;;17.92;64.54
6528;BME280;64597;42.664;23.256;2023-06-19T04:56:26;94629.28;;;17.84;64.33
6528;BME280;64597;42.664;23.256;2023-06-19T04:58:52;94656.19;;;18.88;77.80
6528;BME280;64597;42.664;23.256;2023-06-19T05:01:21;94637.81;;;19.71;74.76
6528;BME280;64597;42.664;23.256;2023-06-19T05:03:53;94648.25;;;20.42;70.68
6528;BME280;64597;42.664;23.256;2023-06-19T05:06:20;94666.03;;;20.84;67.60
6528;BME280;64597;42.664;23.256;2023-06-19T05:08:45;94656.44;;;21.24;65.11
6528;BME280;64597;42.664;23.256;2023-06-19T05:11:11;94649.38;;;21.55;62.87
6528;BME280;64597;42.664;23.256;2023-06-19T05:13:36;94651.16;;;21.73;59.85
6528;BME280;64597;42.664;23.256;2023-06-19T05:16:02;94652.59;;;21.44;56.89
6528;BME280;64597;42.664;23.256;2023-06-19T05:18:27;94661.31;;;21.22;56.09
6528;BME280;64597;42.664;23.256;2023-06-19T05:20:53;94657.34;;;21.06;54.02
6528;BME280;64597;42.664;23.256;2023-06-19T05:23:18;94658.91;;;20.93;54.06
6528;BME280;64597;42.664;23.256;2023-06-19T05:25:43;94666.03;;;20.98;53.91
6528;BME280;64597;42.664;23.256;2023-06-19T05:28:09;94663.66;;;20.83;52.73
6528;BME280;64597;42.664;23.256;2023-06-19T05:30:34;94678.81;;;20.87;52.66
6528;BME280;64597;42.664;23.256;2023-06-19T05:33:01;94685.00;;;20.88;53.32
6528;BME280;64597;42.664;23.256;2023-06-19T05:35:26;94687.59;;;20.93;53.69
6528;BME280;64597;42.664;23.256;2023-06-19T05:37:52;94688.09;;;20.95;54.10
6528;BME280;64597;42.664;23.256;2023-06-19T05:40:17;94695.25;;;20.99;53.87
6528;BME280;64597;42.664;23.256;2023-06-19T05:42:43;94686.56;;;21.07;53.80
6528;BME280;64597;42.664;23.256;2023-06-19T05:45:09;94676.72;;;21.03;52.99
6528;BME280;64597;42.664;23.256;2023-06-19T05:47:34;94672.84;;;21.09;51.72
6528;BME280;64597;42.664;23.256;2023-06-19T05:50:00;94655.78;;;21.05;51.63
6528;BME280;64597;42.664;23.256;2023-06-19T05:52:25;94654.78;;;21.28;51.94
6528;BME280;64597;42.664;23.256;2023-06-19T05:54:51;94678.50;;;21.62;52.50
6528;BME280;64597;42.664;23.256;2023-06-19T05:57:19;94691.13;;;21.88;52.46
6528;BME280;64597;42.664;23.256;2023-06-19T05:59:50;94688.19;;;22.12;51.52
6528;BME280;64597;42.664;23.256;2023-06-19T06:02:16;94691.59;;;22.40;51.50
6528;BME280;64597;42.664;23.256;2023-06-19T06:04:42;94687.34;;;22.61;50.23
6528;BME280;64597;42.664;23.256;2023-06-19T06:07:08;94677.06;;;22.85;49.74
6528;BME280;64597;42.664;23.256;2023-06-19T06:09:33;94692.28;;;23.20;50.10
6528;BME280;64597;42.664;23.256;2023-06-19T06:11:59;94682.75;;;23.45;49.06
6528;BME280;64597;42.664;23.256;2023-06-19T06:14:26;94688.22;;;23.70;47.21
6528;BME280;64597;42.664;23.256;2023-06-19T06:16:51;94695.31;;;24.06;47.00
6528;BME280;64597;42.664;23.256;2023-06-19T06:19:17;94681.22;;;24.26;46.03
6528;BME280;64597;42.664;23.256;2023-06-19T06:21:42;94691.50;;;24.58;44.31
6528;BME280;64597;42.664;23.256;2023-06-19T06:24:08;94702.94;;;24.89;44.06
6528;BME280;64597;42.664;23.256;2023-06-19T06:26:33;94706.66;;;25.22;43.54
6528;BME280;64597;42.664;23.256;2023-06-19T06:29:00;94696.88;;;25.56;43.08
6528;BME280;64597;42.664;23.256;2023-06-19T06:31:25;94664.28;;;25.61;42.89
6528;BME280;64597;42.664;23.256;2023-06-19T06:33:51;94687.69;;;26.06;42.07
6528;BME280;64597;42.664;23.256;2023-06-19T06:36:17;94698.63;;;26.39;41.34
6528;BME280;64597;42.664;23.256;2023-06-19T06:38:43;94700.78;;;26.66;41.25
6528;BME280;64597;42.664;23.256;2023-06-19T06:41:08;94700.81;;;26.87;39.64
6528;BME280;64597;42.664;23.256;2023-06-19T06:43:34;94691.81;;;26.95;39.07
6528;BME280;64597;42.664;23.256;2023-06-19T06:46:00;94698.91;;;27.32;38.44
6528;BME280;64597;42.664;23.256;2023-06-19T06:48:25;94706.50;;;27.39;37.49
6528;BME280;64597;42.664;23.256;2023-06-19T06:50:51;94700.88;;;27.56;37.98
6528;BME280;64597;42.664;23.256;2023-06-19T06:53:24;94700.66;;;27.73;36.29
6528;BME280;64597;42.664;23.256;2023-06-19T06:55:50;94700.47;;;27.90;36.33
6528;BME280;64597;42.664;23.256;2023-06-19T06:58:16;94702.47;;;28.17;36.27
6528;BME280;64597;42.664;23.256;2023-06-19T07:00:43;94700.41;;;28.38;35.85
6528;BME280;64597;42.664;23.256;2023-06-19T07:03:08;94704.34;;;28.65;35.67
6528;BME280;64597;42.664;23.256;2023-06-19T07:05:33;94698.63;;;28.82;35.49
6528;BME280;64597;42.664;23.256;2023-06-19T07:07:59;94676.28;;;28.89;34.84
6528;BME280;64597;42.664;23.256;2023-06-19T07:10:27;94692.09;;;28.99;33.31
6528;BME280;64597;42.664;23.256;2023-06-19T07:12:53;94694.16;;;28.90;35.41
6528;BME280;64597;42.664;23.256;2023-06-19T07:15:18;94700.41;;;29.18;34.06
6528;BME280;64597;42.664;23.256;2023-06-19T07:17:45;94693.59;;;29.12;33.69
6528;BME280;64597;42.664;23.256;2023-06-19T07:20:11;94694.44;;;29.28;34.11
6528;BME280;64597;42.664;23.256;2023-06-19T07:22:37;94678.00;;;29.37;33.49
6528;BME280;64597;42.664;23.256;2023-06-19T07:25:03;94702.91;;;29.85;33.74
6528;BME280;64597;42.664;23.256;2023-06-19T07:27:29;94690.81;;;29.98;34.04
6528;BME280;64597;42.664;23.256;2023-06-19T07:29:55;94701.47;;;30.23;30.55
6528;BME280;64597;42.664;23.256;2023-06-19T07:32:20;94705.31;;;30.22;32.21
6528;BME280;64597;42.664;23.256;2023-06-19T07:34:46;94695.72;;;29.93;31.62
6528;BME280;64597;42.664;23.256;2023-06-19T07:37:11;94699.56;;;30.07;33.06
6528;BME280;64597;42.664;23.256;2023-06-19T07:39:44;94712.06;;;30.43;32.55
6528;BME280;64597;42.664;23.256;2023-06-19T07:42:09;94713.19;;;30.58;33.35
6528;BME280;64597;42.664;23.256;2023-06-19T07:44:35;94702.72;;;30.79;32.18
6528;BME280;64597;42.664;23.256;2023-06-19T07:47:01;94704.63;;;30.94;32.22
6528;BME280;64597;42.664;23.256;2023-06-19T07:49:26;94707.44;;;31.20;30.74
6528;BME280;64597;42.664;23.256;2023-06-19T07:51:52;94701.78;;;31.10;30.11
6528;BME280;64597;42.664;23.256;2023-06-19T07:54:18;94702.91;;;31.05;30.90
6528;BME280;64597;42.664;23.256;2023-06-19T07:56:43;94710.53;;;31.19;30.03
6528;BME280;64597;42.664;23.256;2023-06-19T07:59:09;94691.97;;;31.24;31.14
6528;BME280;64597;42.664;23.256;2023-06-19T08:01:34;94707.41;;;31.58;32.89
6528;BME280;64597;42.664;23.256;2023-06-19T08:04:00;94704.84;;;31.46;33.01
6528;BME280;64597;42.664;23.256;2023-06-19T08:06:25;94702.53;;;31.48;30.45
6528;BME280;64597;42.664;23.256;2023-06-19T08:08:51;94711.59;;;31.33;29.34
6528;BME280;64597;42.664;23.256;2023-06-19T08:11:17;94703.38;;;31.11;27.54
6528;BME280;64597;42.664;23.256;2023-06-19T08:13:42;94714.91;;;30.85;27.87
6528;BME280;64597;42.664;23.256;2023-06-19T08:16:08;94705.91;;;31.00;27.78
6528;BME280;64597;42.664;23.256;2023-06-19T08:18:35;94704.31;;;31.18;26.41
6528;BME280;64597;42.664;23.256;2023-06-19T08:21:01;94704.13;;;31.30;28.11
6528;BME280;64597;42.664;23.256;2023-06-19T08:23:26;94694.81;;;31.31;28.16
6528;BME280;64597;42.664;23.256;2023-06-19T08:25:52;94695.22;;;31.52;27.98
6528;BME280;64597;42.664;23.256;2023-06-19T08:28:17;94705.97;;;31.64;25.99
6528;BME280;64597;42.664;23.256;2023-06-19T08:30:44;94699.72;;;31.87;27.70
6528;BME280;64597;42.664;23.256;2023-06-19T08:33:10;94702.16;;;32.18;27.17
6528;BME280;64597;42.664;23.256;2023-06-19T08:35:36;94705.63;;;32.41;26.13
6528;BME280;64597;42.664;23.256;2023-06-19T08:38:01;94708.25;;;32.57;26.89
6528;BME280;64597;42.664;23.256;2023-06-19T08:40:27;94717.06;;;32.76;26.08
6528;BME280;64597;42.664;23.256;2023-06-19T08:42:52;94699.19;;;32.82;25.36
6528;BME280;64597;42.664;23.256;2023-06-19T08:45:17;94692.06;;;33.04;25.63
6528;BME280;64597;42.664;23.256;2023-06-19T08:47:49;94698.97;;;33.28;24.43
6528;BME280;64597;42.664;23.256;2023-06-19T08:50:15;94699.66;;;33.51;24.83
6528;BME280;64597;42.664;23.256;2023-06-19T08:52:41;94694.72;;;33.67;24.22
6528;BME280;64597;42.664;23.256;2023-06-19T08:55:07;94700.00;;;33.89;22.36
6528;BME280;64597;42.664;23.256;2023-06-19T08:57:37;94703.41;;;33.79;22.74
6528;BME280;64597;42.664;23.256;2023-06-19T09:00:03;94707.56;;;34.03;23.28
6528;BME280;64597;42.664;23.256;2023-06-19T09:02:41;94713.13;;;34.17;22.99
6528;BME280;64597;42.664;23.256;2023-06-19T09:05:15;94710.50;;;34.31;21.41
6528;BME280;64597;42.664;23.256;2023-06-19T09:07:42;94697.59;;;34.32;22.29
6528;BME280;64597;42.664;23.256;2023-06-19T09:10:18;94704.41;;;34.55;21.71
6528;BME280;64597;42.664;23.256;2023-06-19T09:12:44;94700.59;;;34.70;21.69
6528;BME280;64597;42.664;23.256;2023-06-19T09:15:20;94694.88;;;34.39;21.34
6528;BME280;64597;42.664;23.256;2023-06-19T09:17:46;94683.38;;;34.12;23.71
6528;BME280;64597;42.664;23.256;2023-06-19T09:20:11;94708.47;;;34.21;22.85
6528;BME280;64597;42.664;23.256;2023-06-19T09:22:37;94705.47;;;34.40;22.25
6528;BME280;64597;42.664;23.256;2023-06-19T09:25:03;94707.97;;;34.59;22.68
6528;BME280;64597;42.664;23.256;2023-06-19T09:27:33;94700.94;;;34.65;20.71
6528;BME280;64597;42.664;23.256;2023-06-19T09:29:59;94683.75;;;34.68;22.42
6528;BME280;64597;42.664;23.256;2023-06-19T09:32:26;94694.63;;;34.54;22.51
6528;BME280;64597;42.664;23.256;2023-06-19T09:34:55;94658.09;;;33.82;21.85
6528;BME280;64597;42.664;23.256;2023-06-19T09:37:27;94699.78;;;34.12;22.85
6528;BME280;64597;42.664;23.256;2023-06-19T09:39:55;94695.16;;;34.16;23.76
6528;BME280;64597;42.664;23.256;2023-06-19T09:42:30;94695.56;;;34.18;23.84
6528;BME280;64597;42.664;23.256;2023-06-19T09:45:17;94694.13;;;34.42;21.77
6528;BME280;64597;42.664;23.256;2023-06-19T09:47:46;94691.53;;;34.59;23.19
6528;BME280;64597;42.664;23.256;2023-06-19T09:50:13;94686.09;;;34.73;22.82
6528;BME280;64597;42.664;23.256;2023-06-19T09:52:45;94695.22;;;34.92;22.69
6528;BME280;64597;42.664;23.256;2023-06-19T09:55:12;94695.63;;;34.97;23.30
6528;BME280;64597;42.664;23.256;2023-06-19T09:57:39;94687.00;;;34.92;22.43
6528;BME280;64597;42.664;23.256;2023-06-19T10:00:06;94693.53;;;34.69;22.91
6528;BME280;64597;42.664;23.256;2023-06-19T10:02:47;94680.59;;;34.63;23.37
6528;BME280;64597;42.664;23.256;2023-06-19T10:05:13;94680.69;;;34.84;22.70
6528;BME280;64597;42.664;23.256;2023-06-19T10:07:42;94682.31;;;34.96;22.46
6528;BME280;64597;42.664;23.256;2023-06-19T10:10:10;94687.09;;;35.09;22.20
6528;BME280;64597;42.664;23.256;2023-06-19T10:12:46;94629.78;;;34.87;21.81
6528;BME280;64597;42.664;23.256;2023-06-19T10:17:48;94679.28;;;35.25;21.58
6528;BME280;64597;42.664;23.256;2023-06-19T10:20:30;94672.66;;;35.33;21.96
6528;BME280;64597;42.664;23.256;2023-06-19T10:23:03;94668.31;;;35.18;21.56
6528;BME280;64597;42.664;23.256;2023-06-19T10:25:35;94674.59;;;35.26;22.06
6528;BME280;64597;42.664;23.256;2023-06-19T10:28:01;94663.63;;;35.33;21.75
6528;BME280;64597;42.664;23.256;2023-06-19T10:30:27;94667.53;;;35.25;21.57
6528;BME280;64597;42.664;23.256;2023-06-19T10:32:55;94666.78;;;35.28;21.37
6528;BME280;64597;42.664;23.256;2023-06-19T10:35:20;94666.78;;;35.24;21.20
6528;BME280;64597;42.664;23.256;2023-06-19T10:37:47;94667.53;;;35.18;21.14
6528;BME280;64597;42.664;23.256;2023-06-19T10:40:13;94659.66;;;35.09;21.29
6528;BME280;64597;42.664;23.256;2023-06-19T10:42:39;94654.50;;;34.94;21.23
6528;BME280;64597;42.664;23.256;2023-06-19T10:45:09;94664.75;;;34.39;20.79
6528;BME280;64597;42.664;23.256;2023-06-19T10:47:40;94649.78;;;34.19;21.62
6528;BME280;64597;42.664;23.256;2023-06-19T10:50:13;94668.47;;;34.06;23.07
6528;BME280;64597;42.664;23.256;2023-06-19T10:52:40;94669.81;;;33.82;22.59
6528;BME280;64597;42.664;23.256;2023-06-19T10:55:07;94627.19;;;33.34;23.26
6528;BME280;64597;42.664;23.256;2023-06-19T10:57:32;94653.22;;;33.61;24.25
6528;BME280;64597;42.664;23.256;2023-06-19T10:59:58;94659.34;;;33.48;22.74
6528;BME280;64597;42.664;23.256;2023-06-19T11:02:24;94659.53;;;33.28;23.66
6528;BME280;64597;42.664;23.256;2023-06-19T11:04:54;94659.53;;;33.28;25.01
6528;BME280;64597;42.664;23.256;2023-06-19T11:07:20;94653.66;;;33.26;26.11
6528;BME280;64597;42.664;23.256;2023-06-19T11:09:48;94644.28;;;33.24;25.45
6528;BME280;64597;42.664;23.256;2023-06-19T11:12:19;94637.94;;;33.16;25.28
6528;BME280;64597;42.664;23.256;2023-06-19T11:14:45;94638.75;;;33.20;25.20
6528;BME280;64597;42.664;23.256;2023-06-19T11:17:10;94650.50;;;33.24;25.75
6528;BME280;64597;42.664;23.256;2023-06-19T11:19:36;94649.28;;;33.18;25.05
6528;BME280;64597;42.664;23.256;2023-06-19T11:22:03;94648.44;;;33.14;24.41
6528;BME280;64597;42.664;23.256;2023-06-19T11:24:29;94640.19;;;33.07;24.41
6528;BME280;64597;42.664;23.256;2023-06-19T11:26:56;94640.88;;;32.97;23.85
6528;BME280;64597;42.664;23.256;2023-06-19T11:29:25;94634.41;;;32.83;24.36
6528;BME280;64597;42.664;23.256;2023-06-19T11:32:03;94633.53;;;32.75;25.23
6528;BME280;64597;42.664;23.256;2023-06-19T11:34:34;94640.66;;;32.50;25.58
6528;BME280;64597;42.664;23.256;2023-06-19T11:37:03;94641.13;;;32.29;27.12
6528;BME280;64597;42.664;23.256;2023-06-19T11:39:36;94638.88;;;32.09;27.34
6528;BME280;64597;42.664;23.256;2023-06-19T11:42:02;94646.53;;;32.00;26.90
6528;BME280;64597;42.664;23.256;2023-06-19T11:44:28;94633.06;;;31.88;27.53
6528;BME280;64597;42.664;23.256;2023-06-19T11:46:57;94628.50;;;31.69;27.49
6528;BME280;64597;42.664;23.256;2023-06-19T11:49:25;94632.16;;;31.77;27.36
6528;BME280;64597;42.664;23.256;2023-06-19T11:51:51;94610.66;;;31.75;27.99
6528;BME280;64597;42.664;23.256;2023-06-19T11:54:17;94613.50;;;31.82;26.20
6528;BME280;64597;42.664;23.256;2023-06-19T11:56:46;94623.31;;;31.60;26.72
6528;BME280;64597;42.664;23.256;2023-06-19T11:59:12;94619.47;;;31.65;28.47
6528;BME280;64597;42.664;23.256;2023-06-19T12:01:39;94619.66;;;31.76;28.41
6528;BME280;64597;42.664;23.256;2023-06-19T12:04:05;94638.25;;;31.70;27.84
6528;BME280;64597;42.664;23.256;2023-06-19T12:06:30;94617.13;;;31.63;26.87
6528;BME280;64597;42.664;23.256;2023-06-19T12:08:56;94628.88;;;31.45;28.60
6528;BME280;64597;42.664;23.256;2023-06-19T12:11:22;94627.66;;;31.42;28.08
6528;BME280;64597;42.664;23.256;2023-06-19T12:13:48;94620.66;;;31.41;29.15
6528;BME280;64597;42.664;23.256;2023-06-19T12:16:14;94623.91;;;31.50;29.21
6528;BME280;64597;42.664;23.256;2023-06-19T12:18:40;94616.63;;;31.35;29.56
6528;BME280;64597;42.664;23.256;2023-06-19T12:21:06;94613.13;;;31.35;29.12
6528;BME280;64597;42.664;23.256;2023-06-19T12:23:32;94619.50;;;31.42;29.13
6528;BME280;64597;42.664;23.256;2023-06-19T12:25:57;94615.00;;;31.31;28.26
6528;BME280;64597;42.664;23.256;2023-06-19T12:28:23;94618.69;;;31.19;29.44
6528;BME280;64597;42.664;23.256;2023-06-19T12:30:48;94616.69;;;31.16;29.54
6528;BME280;64597;42.664;23.256;2023-06-19T12:33:18;94608.44;;;31.13;28.86
6528;BME280;64597;42.664;23.256;2023-06-19T12:35:44;94617.41;;;31.13;29.37
6528;BME280;64597;42.664;23.256;2023-06-19T12:38:10;94600.13;;;31.06;29.92
6528;BME280;64597;42.664;23.256;2023-06-19T12:40:36;94614.88;;;31.24;28.67
6528;BME280;64597;42.664;23.256;2023-06-19T12:43:02;94609.66;;;31.15;28.82
6528;BME280;64597;42.664;23.256;2023-06-19T12:45:27;94601.91;;;31.17;29.11
6528;BME280;64597;42.664;23.256;2023-06-19T12:47:53;94602.22;;;31.12;29.22
6528;BME280;64597;42.664;23.256;2023-06-19T12:50:19;94605.97;;;31.04;29.17
6528;BME280;64597;42.664;23.256;2023-06-19T12:52:44;94604.94;;;31.12;28.91
6528;BME280;64597;42.664;23.256;2023-06-19T12:55:10;94606.53;;;31.13;29.82
6528;BME280;64597;42.664;23.256;2023-06-19T12:57:35;94588.75;;;31.00;29.68
6528;BME280;64597;42.664;23.256;2023-06-19T13:00:01;94590.34;;;31.01;29.51